Austin, TX

4:02 PM CDT on September 26, 2016 (GMT -0500)
West End | | Change Station

Elev 564 ft 30.28 °N, 97.75 °W | Updated 6 seconds ago

Overcast
Overcast
71.2 °F
Feels Like 70 °F
N
4.9
Wind Variable Wind from NNE
Gusts 7.4 mph

Today
High -- | Low -- °F
--% Chance of Precip.
Yesterday
High -- | Low -- °F
Precip. -- in
Pressure 30.07 in
Visibility 10.0 miles
Clouds Overcast 1000 ft
Heat Index 70 °F
Dew Point 67 °F
Humidity 85%
Rainfall 0.52 in
Snow Depth Not available.
7:21 AM 7:21 PM
Waning Crescent, 16% visible
METAR KATT 262051Z AUTO 34008KT 10SM OVC010 22/19 A3009 RMK AO2 SLP181 T02170189 55009
Pressure 30.07 in
Visibility 10.0 miles
Clouds Overcast 1000 ft
Heat Index 70 °F
Dew Point 67 °F
Humidity 85%
Rainfall 0.52 in
Snow Depth Not available.
7:21 AM 7:21 PM
Waning Crescent, 16% visible
METAR KATT 262051Z AUTO 34008KT 10SM OVC010 22/19 A3009 RMK AO2 SLP181 T02170189 55009

10-Day Weather Forecast

Almanac

Astronomy

Sep. 26, 2016 Rise Set
Actual Time
Civil Twilight
Nautical Twilight
Astronomical Twilight
Moon
Length of Visible Light
Length of Day
Tomorrow will be .
, % of the Moon is Illuminated

Today's Extremes

State Highs State Lows

Community

WunderPhotos

Upload Photos

1,941,968 photos uploaded!

WunderBlog® & News

Nearby

Air Quality

  Air Quality AQ Index Pollutant
Not available.

Snow Depth

Station Depth Elevation

Earthquake Activity

City Distance Mag. Time & Date
Minimum magnitude displayed is 2.5.

Coastal Water Temperatures

Place Temperature

Stations

Nearby Weather Stations

Station Location Temp. Windchill Dew Point Humidity Wind Precip. Elev Updated Type
                   

Watches & Warnings

There are currently no watches in effect.